createdAt,value
2022-11-08T00:02:26.064Z,68.60
2022-11-08T00:04:53.050Z,68.80
2022-11-08T00:07:38.418Z,69.00
2022-11-08T00:10:24.683Z,69.00
2022-11-08T00:13:09.748Z,69.10
2022-11-08T00:15:38.931Z,69.30
2022-11-08T00:18:07.418Z,69.40
2022-11-08T00:20:34.963Z,69.50
2022-11-08T00:23:01.927Z,69.50
2022-11-08T00:25:28.963Z,69.60
2022-11-08T00:27:55.820Z,70.50
2022-11-08T00:30:22.681Z,69.80
2022-11-08T00:32:49.524Z,69.80
2022-11-08T00:35:16.391Z,70.00
2022-11-08T00:37:43.234Z,69.90
2022-11-08T00:40:10.696Z,70.00
2022-11-08T00:42:37.504Z,70.00
2022-11-08T00:45:04.880Z,70.00
2022-11-08T00:47:31.722Z,70.00
2022-11-08T00:49:58.541Z,70.00
2022-11-08T00:52:25.404Z,70.20
2022-11-08T00:54:52.191Z,70.30
2022-11-08T00:57:22.241Z,70.50
2022-11-08T00:59:51.501Z,70.50
2022-11-08T01:02:18.490Z,70.50
2022-11-08T01:04:45.354Z,70.60
2022-11-08T01:07:12.172Z,70.70
2022-11-08T01:09:39.021Z,70.70
2022-11-08T01:12:06.038Z,71.70
2022-11-08T01:14:32.953Z,70.80
2022-11-08T01:16:59.782Z,70.80
2022-11-08T01:19:26.612Z,70.80
2022-11-08T01:21:53.496Z,70.90
2022-11-08T01:24:21.236Z,71.00
2022-11-08T01:26:51.000Z,71.00
2022-11-08T01:29:17.858Z,71.10
2022-11-08T01:31:44.804Z,71.30
2022-11-08T01:34:11.619Z,71.40
2022-11-08T01:36:38.477Z,71.70
2022-11-08T01:39:05.289Z,71.80
2022-11-08T01:41:32.138Z,71.80
2022-11-08T01:43:59.924Z,71.90
2022-11-08T01:46:37.062Z,72.00
2022-11-08T01:49:32.927Z,72.10
2022-11-08T01:52:24.664Z,72.10
2022-11-08T01:55:12.107Z,72.30
2022-11-08T01:57:42.757Z,72.50
2022-11-08T02:00:12.628Z,72.60
2022-11-08T02:02:42.835Z,72.50
2022-11-08T02:05:25.411Z,72.50
2022-11-08T02:07:58.025Z,72.50
2022-11-08T02:10:28.416Z,72.50
2022-11-08T02:12:55.903Z,72.60
2022-11-08T02:15:24.942Z,72.60
2022-11-08T02:17:53.022Z,72.50
2022-11-08T02:20:20.299Z,72.50
2022-11-08T02:22:58.824Z,72.50
2022-11-08T02:25:26.502Z,72.40
2022-11-08T02:27:53.315Z,72.30
2022-11-08T02:30:20.246Z,72.30
2022-11-08T02:32:47.195Z,72.30
2022-11-08T02:35:18.732Z,72.30
2022-11-08T02:37:46.694Z,72.20
2022-11-08T02:40:13.753Z,72.20
2022-11-08T02:42:40.569Z,72.10
2022-11-08T02:45:08.265Z,72.10
2022-11-08T02:47:35.172Z,72.20
2022-11-08T02:50:02.382Z,72.10
2022-11-08T02:52:29.203Z,72.10
2022-11-08T02:54:56.008Z,72.50
2022-11-08T02:57:22.833Z,72.20
2022-11-08T02:59:49.651Z,72.20
2022-11-08T03:02:16.594Z,72.00
2022-11-08T03:04:43.511Z,72.00
2022-11-08T03:07:10.448Z,72.00
2022-11-08T03:09:37.319Z,72.00
2022-11-08T03:12:04.281Z,72.10
2022-11-08T03:14:31.133Z,72.10
2022-11-08T03:16:58.047Z,72.10
2022-11-08T03:19:24.899Z,72.10
2022-11-08T03:21:51.708Z,72.20
2022-11-08T03:24:18.532Z,72.20
2022-11-08T03:26:45.373Z,72.10
2022-11-08T03:29:12.178Z,72.00
2022-11-08T03:31:39.015Z,72.10
2022-11-08T03:34:05.857Z,72.00
2022-11-08T03:36:32.647Z,71.90
2022-11-08T03:38:59.508Z,71.90
2022-11-08T03:41:26.388Z,72.00
2022-11-08T03:43:53.300Z,71.90
2022-11-08T03:46:20.106Z,71.90
2022-11-08T03:48:46.958Z,71.80
2022-11-08T03:51:13.793Z,71.80
2022-11-08T03:53:40.731Z,71.80
2022-11-08T03:56:08.089Z,71.80
2022-11-08T03:58:35.944Z,71.90
2022-11-08T04:01:07.045Z,71.90
2022-11-08T04:03:33.963Z,71.90
2022-11-08T04:06:01.932Z,72.00
2022-11-08T04:08:30.023Z,72.00
2022-11-08T04:10:57.883Z,72.10
2022-11-08T04:13:43.179Z,72.00
2022-11-08T04:16:13.895Z,72.00
2022-11-08T04:19:01.921Z,72.00
2022-11-08T04:21:28.774Z,71.90
2022-11-08T04:23:55.594Z,71.90
2022-11-08T04:26:22.714Z,71.80
2022-11-08T04:28:49.649Z,71.70
2022-11-08T04:31:19.018Z,71.60
2022-11-08T04:33:46.171Z,71.40
2022-11-08T04:36:15.535Z,71.40
2022-11-08T04:38:42.554Z,71.30
2022-11-08T04:41:14.433Z,71.20
2022-11-08T04:43:41.801Z,71.10
2022-11-08T04:46:11.408Z,71.00
2022-11-08T04:48:38.323Z,70.90
2022-11-08T04:51:14.591Z,70.80
2022-11-08T04:53:41.882Z,70.70
2022-11-08T04:56:14.619Z,70.60
2022-11-08T04:58:43.731Z,70.60
2022-11-08T05:01:12.752Z,70.50
2022-11-08T05:03:39.679Z,70.40
2022-11-08T05:06:11.770Z,70.30
2022-11-08T05:08:39.565Z,70.20
2022-11-08T05:11:09.554Z,70.20
2022-11-08T05:13:37.018Z,70.20
2022-11-08T05:16:10.483Z,70.10
2022-11-08T05:18:37.318Z,70.00
2022-11-08T05:21:22.695Z,70.00
2022-11-08T05:23:50.899Z,69.90
2022-11-08T05:26:19.560Z,69.80
2022-11-08T05:28:46.880Z,69.80
2022-11-08T05:31:14.550Z,69.80
2022-11-08T05:33:41.827Z,69.70
2022-11-08T05:36:10.952Z,69.80
2022-11-08T05:38:40.375Z,69.70
2022-11-08T05:41:16.964Z,69.60
2022-11-08T05:43:46.453Z,69.60
2022-11-08T05:46:14.107Z,69.50
2022-11-08T05:48:42.820Z,69.60
2022-11-08T05:51:11.978Z,69.60
2022-11-08T05:53:39.828Z,69.50
2022-11-08T05:56:07.464Z,69.40
2022-11-08T05:58:35.546Z,69.40
2022-11-08T06:01:13.753Z,69.40
2022-11-08T06:03:40.737Z,69.30
2022-11-08T06:06:10.283Z,69.30
2022-11-08T06:08:37.971Z,69.20
2022-11-08T06:11:21.434Z,69.10
2022-11-08T06:13:48.661Z,69.10
2022-11-08T06:16:17.607Z,69.00
2022-11-08T06:18:44.572Z,68.90
2022-11-08T06:21:14.330Z,68.90
2022-11-08T06:23:41.846Z,68.80
2022-11-08T06:26:09.674Z,69.60
2022-11-08T06:28:36.755Z,68.70
2022-11-08T06:31:04.829Z,68.60
2022-11-08T06:33:32.097Z,68.50
2022-11-08T06:35:59.202Z,68.50
2022-11-08T06:38:26.282Z,68.40
2022-11-08T06:40:53.491Z,68.30
2022-11-08T06:43:20.952Z,68.20
2022-11-08T06:45:48.412Z,68.20
2022-11-08T06:48:15.363Z,68.00
2022-11-08T06:50:42.729Z,68.00
2022-11-08T06:53:13.285Z,67.90
2022-11-08T06:55:40.353Z,67.80
2022-11-08T06:58:07.451Z,67.80
2022-11-08T07:00:34.391Z,67.80
2022-11-08T07:03:02.710Z,67.80
2022-11-08T07:05:31.518Z,67.70
2022-11-08T07:07:59.032Z,67.70
2022-11-08T07:10:29.093Z,67.60
2022-11-08T07:13:08.222Z,67.60
2022-11-08T07:15:36.334Z,67.40
2022-11-08T07:18:09.462Z,67.30
2022-11-08T07:20:36.824Z,67.30
2022-11-08T07:23:05.773Z,67.10
2022-11-08T07:25:33.067Z,67.10
2022-11-08T07:28:06.244Z,66.90
2022-11-08T07:30:34.020Z,66.80
2022-11-08T07:33:01.026Z,66.70
2022-11-08T07:35:28.218Z,66.60
2022-11-08T07:37:55.607Z,66.40
2022-11-08T07:40:22.827Z,66.50
2022-11-08T07:43:10.715Z,66.40
2022-11-08T07:45:36.550Z,66.30
2022-11-08T07:48:10.966Z,66.20
2022-11-08T07:50:40.205Z,65.90
2022-11-08T07:53:07.902Z,65.70
2022-11-08T07:55:38.920Z,65.60
2022-11-08T07:58:06.943Z,65.50
2022-11-08T08:00:36.751Z,65.30
2022-11-08T08:03:05.486Z,65.20
2022-11-08T08:05:43.931Z,65.10
2022-11-08T08:08:12.837Z,64.80
2022-11-08T08:10:40.951Z,64.70
2022-11-08T08:13:08.250Z,64.40
2022-11-08T08:15:35.202Z,64.40
2022-11-08T08:18:07.624Z,64.50
2022-11-08T08:20:35.589Z,64.50
2022-11-08T08:23:02.581Z,64.50
2022-11-08T08:25:31.462Z,64.60
2022-11-08T08:28:00.795Z,64.50
2022-11-08T08:30:31.091Z,64.60
2022-11-08T08:33:26.801Z,64.50
2022-11-08T08:35:52.903Z,64.60
2022-11-08T08:38:20.083Z,64.50
2022-11-08T08:40:47.384Z,64.50
2022-11-08T08:43:14.302Z,64.40
2022-11-08T08:45:41.894Z,64.40
2022-11-08T08:48:08.783Z,64.40
2022-11-08T08:50:35.625Z,64.40
2022-11-08T08:53:04.356Z,64.40
2022-11-08T08:55:32.204Z,64.30
2022-11-08T08:57:59.030Z,64.30
2022-11-08T09:03:13.441Z,64.20
2022-11-08T09:05:46.279Z,64.30
2022-11-08T09:08:14.571Z,64.10
2022-11-08T09:10:42.331Z,63.80
2022-11-08T09:13:09.475Z,63.60
2022-11-08T09:15:36.336Z,63.40
2022-11-08T09:18:03.339Z,63.50
2022-11-08T09:20:30.329Z,63.50
2022-11-08T09:23:03.013Z,63.30
2022-11-08T09:25:30.295Z,63.30
2022-11-08T09:27:57.238Z,63.00
2022-11-08T09:30:24.301Z,62.80
2022-11-08T09:33:01.945Z,62.80
2022-11-08T09:35:29.964Z,62.60
2022-11-08T09:37:57.971Z,62.60
2022-11-08T09:40:38.266Z,62.50
2022-11-08T09:43:29.239Z,62.30
2022-11-08T09:45:57.450Z,62.20
2022-11-08T09:48:41.184Z,62.00
2022-11-08T09:51:18.447Z,62.00
2022-11-08T09:53:52.178Z,61.90
2022-11-08T09:56:23.428Z,61.70
2022-11-08T09:59:13.581Z,61.50
2022-11-08T10:01:40.994Z,61.10
2022-11-08T10:04:29.984Z,61.20
2022-11-08T10:07:03.214Z,61.00
2022-11-08T10:09:59.763Z,61.20
2022-11-08T10:12:45.052Z,61.00
2022-11-08T10:15:29.943Z,61.00
2022-11-08T10:18:05.716Z,60.90
2022-11-08T10:21:10.499Z,61.00
2022-11-08T10:23:45.330Z,60.90
2022-11-08T10:26:26.638Z,60.70
2022-11-08T10:29:08.152Z,60.90
2022-11-08T10:31:38.111Z,61.90
2022-11-08T10:34:15.489Z,60.60
2022-11-08T10:36:45.345Z,60.90
2022-11-08T10:39:17.922Z,61.00
2022-11-08T10:42:09.080Z,61.00
2022-11-08T10:44:36.494Z,61.30
2022-11-08T10:47:06.788Z,61.30
2022-11-08T10:49:41.925Z,61.30
2022-11-08T10:52:11.957Z,61.30
2022-11-08T10:54:47.893Z,61.30
2022-11-08T10:57:45.162Z,61.50
2022-11-08T11:00:21.249Z,61.10
2022-11-08T11:02:59.164Z,61.10
2022-11-08T11:05:35.600Z,61.30
2022-11-08T11:08:15.395Z,61.40
2022-11-08T11:10:44.856Z,61.20
2022-11-08T11:13:22.413Z,61.30
2022-11-08T11:15:57.485Z,61.40
2022-11-08T11:18:28.816Z,61.30
2022-11-08T11:21:02.152Z,60.80
2022-11-08T11:23:35.031Z,60.80
2022-11-08T11:26:02.279Z,60.90
2022-11-08T11:28:29.223Z,61.10
2022-11-08T11:31:05.504Z,60.90
2022-11-08T11:33:33.613Z,61.00
2022-11-08T11:36:13.795Z,60.80
2022-11-08T11:39:04.825Z,60.90
2022-11-08T11:41:39.638Z,60.60
2022-11-08T11:44:39.645Z,60.50
2022-11-08T11:47:15.889Z,60.50
2022-11-08T11:49:47.624Z,60.70
2022-11-08T11:52:19.156Z,61.10
2022-11-08T11:54:48.791Z,62.40
2022-11-08T11:57:26.546Z,61.20
2022-11-08T12:00:04.892Z,60.80
2022-11-08T12:02:42.867Z,60.40
2022-11-08T12:05:47.547Z,60.60
2022-11-08T12:08:28.270Z,60.40
2022-11-08T12:11:05.074Z,59.70
2022-11-08T12:13:37.534Z,60.00
2022-11-08T12:16:44.603Z,60.10
2022-11-08T12:19:38.274Z,60.10
2022-11-08T12:22:17.014Z,59.60
2022-11-08T12:25:11.093Z,59.40
2022-11-08T12:27:49.686Z,59.40
2022-11-08T12:30:21.178Z,59.70
2022-11-08T12:33:23.503Z,59.40
2022-11-08T12:36:21.157Z,59.40
2022-11-08T12:39:02.206Z,59.10
2022-11-08T12:42:00.147Z,60.10
2022-11-08T12:44:59.631Z,59.30
2022-11-08T12:47:40.583Z,59.40
2022-11-08T12:50:42.849Z,59.10
2022-11-08T12:53:26.602Z,59.40
2022-11-08T12:55:57.135Z,59.00
2022-11-08T12:58:49.221Z,59.00
2022-11-08T13:01:18.792Z,59.60
2022-11-08T13:03:51.518Z,59.90
2022-11-08T13:06:34.206Z,60.00
2022-11-08T13:09:20.774Z,60.30
2022-11-08T13:12:05.260Z,60.10
2022-11-08T13:14:37.184Z,60.40
2022-11-08T13:17:17.015Z,60.00
2022-11-08T13:19:46.897Z,59.80
2022-11-08T13:22:29.112Z,59.80
2022-11-08T13:25:00.918Z,60.10
2022-11-08T13:27:39.645Z,60.00
2022-11-08T13:30:14.002Z,59.70
2022-11-08T13:32:43.655Z,60.00
2022-11-08T13:35:31.330Z,60.00
2022-11-08T13:38:17.028Z,60.00
2022-11-08T13:41:22.698Z,59.60
2022-11-08T13:43:51.377Z,59.60
2022-11-08T13:46:30.287Z,60.20
2022-11-08T13:49:06.044Z,60.10
2022-11-08T13:51:38.201Z,60.10
2022-11-08T13:54:23.406Z,60.10
2022-11-08T13:56:50.238Z,60.00
2022-11-08T13:59:32.517Z,60.00
2022-11-08T14:01:59.821Z,59.80
2022-11-08T14:04:38.558Z,59.80
2022-11-08T14:07:22.102Z,59.80
2022-11-08T14:10:15.799Z,60.00
2022-11-08T14:12:53.164Z,60.10
2022-11-08T14:15:28.740Z,59.70
2022-11-08T14:18:09.648Z,59.80
2022-11-08T14:20:46.757Z,60.10
2022-11-08T14:23:19.952Z,60.20
2022-11-08T14:25:48.422Z,60.30
2022-11-08T14:28:35.492Z,60.00
2022-11-08T14:31:06.048Z,60.20
2022-11-08T14:33:40.612Z,60.20
2022-11-08T14:36:14.869Z,60.30
2022-11-08T14:38:55.951Z,60.50
2022-11-08T14:41:27.035Z,60.60
2022-11-08T14:43:55.780Z,60.50
2022-11-08T14:46:29.468Z,60.50
2022-11-08T14:48:56.939Z,60.70
2022-11-08T14:51:25.486Z,60.60
2022-11-08T14:53:54.759Z,60.80
2022-11-08T14:56:37.014Z,60.90
2022-11-08T14:59:07.079Z,61.00
2022-11-08T15:01:35.316Z,60.80
2022-11-08T15:04:15.346Z,61.00
2022-11-08T15:06:58.900Z,61.00
2022-11-08T15:09:32.404Z,61.20
2022-11-08T15:12:03.056Z,61.10
2022-11-08T15:14:33.757Z,61.20
2022-11-08T15:17:03.382Z,61.30
2022-11-08T15:19:42.840Z,61.30
2022-11-08T15:22:33.292Z,61.30
2022-11-08T15:25:32.673Z,61.40
2022-11-08T15:28:16.107Z,61.40
2022-11-08T15:30:45.542Z,61.40
2022-11-08T15:33:29.874Z,61.30
2022-11-08T15:35:59.267Z,61.40
2022-11-08T15:38:36.060Z,62.40
2022-11-08T15:41:05.337Z,62.50
2022-11-08T15:43:32.190Z,61.60
2022-11-08T15:46:00.782Z,61.70
2022-11-08T15:48:28.259Z,61.90
2022-11-08T15:50:59.033Z,61.90
2022-11-08T15:53:27.130Z,62.00
2022-11-08T15:55:57.623Z,62.00
2022-11-08T15:58:36.416Z,62.10
2022-11-08T16:01:04.502Z,62.20
2022-11-08T16:03:33.635Z,62.30
2022-11-08T16:06:00.549Z,62.50
2022-11-08T16:08:27.853Z,62.50
2022-11-08T16:10:59.622Z,62.60
2022-11-08T16:13:30.436Z,62.90
2022-11-08T16:15:58.532Z,63.00
2022-11-08T16:18:25.805Z,63.20
2022-11-08T16:20:52.689Z,63.40
2022-11-08T16:23:19.633Z,63.50
2022-11-08T16:25:49.410Z,64.40
2022-11-08T16:28:38.139Z,63.70
2022-11-08T16:31:16.401Z,64.00
2022-11-08T16:33:44.838Z,64.20
2022-11-08T16:36:21.931Z,64.30
2022-11-08T16:38:54.282Z,64.30
2022-11-08T16:41:22.522Z,64.40
2022-11-08T16:43:49.334Z,64.40
2022-11-08T16:46:19.062Z,64.30
2022-11-08T16:48:49.288Z,64.30
2022-11-08T16:51:18.822Z,65.10
2022-11-08T16:53:47.026Z,64.10
2022-11-08T16:56:14.764Z,64.40
2022-11-08T16:58:42.316Z,64.00
2022-11-08T17:01:16.032Z,64.20
2022-11-08T17:03:43.061Z,64.30
2022-11-08T17:06:17.996Z,64.20
2022-11-08T17:08:48.100Z,64.40
2022-11-08T17:11:20.608Z,64.40
2022-11-08T17:13:47.931Z,64.50
2022-11-08T17:16:15.333Z,64.40
2022-11-08T17:18:42.614Z,64.40
2022-11-08T17:21:42.477Z,64.40
2022-11-08T17:24:00.355Z,64.50
2022-11-08T17:26:27.373Z,64.60
2022-11-08T17:28:57.572Z,64.60
2022-11-08T17:31:24.387Z,64.50
2022-11-08T17:33:51.391Z,64.70
2022-11-08T17:36:18.279Z,64.70
2022-11-08T17:38:45.149Z,64.90
2022-11-08T17:41:14.177Z,64.90
2022-11-08T17:43:41.848Z,64.90
2022-11-08T17:46:10.747Z,65.00
2022-11-08T17:48:38.384Z,65.00
2022-11-08T17:51:05.518Z,65.10
2022-11-08T17:53:34.377Z,65.20
2022-11-08T17:56:04.244Z,65.30
2022-11-08T17:58:34.321Z,65.40
2022-11-08T18:01:04.747Z,65.60
2022-11-08T18:03:32.418Z,65.60
2022-11-08T18:06:06.287Z,65.60
2022-11-08T18:08:34.813Z,65.50
2022-11-08T18:11:02.269Z,65.50
2022-11-08T18:13:29.943Z,65.40
2022-11-08T18:16:09.668Z,65.50
2022-11-08T18:18:37.039Z,65.70
2022-11-08T18:21:05.405Z,65.70
2022-11-08T18:23:32.326Z,65.80
2022-11-08T18:25:59.330Z,65.70
2022-11-08T18:28:26.685Z,65.60
2022-11-08T18:30:53.842Z,65.50
2022-11-08T18:33:21.728Z,65.40
2022-11-08T18:35:48.965Z,65.40
2022-11-08T18:38:15.801Z,65.40
2022-11-08T18:40:49.109Z,65.50
2022-11-08T18:43:16.191Z,65.60
2022-11-08T18:45:43.246Z,65.60
2022-11-08T18:48:10.071Z,65.80
2022-11-08T18:50:37.530Z,65.70
2022-11-08T18:53:07.074Z,65.70
2022-11-08T18:55:34.372Z,65.60
2022-11-08T18:58:02.031Z,65.60
2022-11-08T19:00:28.976Z,65.60
2022-11-08T19:02:55.777Z,65.60
2022-11-08T19:05:23.532Z,65.60
2022-11-08T19:07:50.417Z,65.60
2022-11-08T19:10:17.346Z,65.70
2022-11-08T19:12:44.181Z,65.90
2022-11-08T19:15:11.379Z,65.90
2022-11-08T19:17:38.171Z,66.00
2022-11-08T19:20:05.581Z,66.10
2022-11-08T19:22:32.420Z,66.10
2022-11-08T19:24:59.308Z,66.20
2022-11-08T19:27:26.268Z,66.20
2022-11-08T19:29:53.198Z,66.20
2022-11-08T19:32:20.313Z,66.30
2022-11-08T19:34:47.294Z,66.40
2022-11-08T19:37:14.239Z,66.30
2022-11-08T19:39:41.232Z,66.40
2022-11-08T19:42:08.078Z,66.40
2022-11-08T19:44:35.035Z,66.60
2022-11-08T19:47:01.930Z,66.50
2022-11-08T19:49:28.806Z,66.60
2022-11-08T19:51:55.733Z,66.70
2022-11-08T19:54:22.640Z,66.70
2022-11-08T19:57:04.014Z,66.80
2022-11-08T19:59:31.550Z,66.80
2022-11-08T20:01:59.937Z,67.80
2022-11-08T20:04:27.030Z,66.90
2022-11-08T20:06:53.991Z,66.90
2022-11-08T20:09:24.634Z,66.90
2022-11-08T20:11:55.356Z,67.00
2022-11-08T20:14:22.260Z,67.00
2022-11-08T20:16:53.188Z,67.00
2022-11-08T20:19:20.650Z,67.10
2022-11-08T20:21:47.949Z,67.10
2022-11-08T20:24:15.699Z,67.10
2022-11-08T20:26:43.521Z,67.00
2022-11-08T20:29:11.003Z,67.60
2022-11-08T20:31:38.689Z,67.00
2022-11-08T20:34:09.922Z,67.00
2022-11-08T20:36:37.562Z,67.00
2022-11-08T20:39:07.641Z,67.10
2022-11-08T20:41:37.231Z,67.20
2022-11-08T20:44:05.418Z,67.20
2022-11-08T20:46:33.168Z,67.20
2022-11-08T20:49:01.147Z,67.10
2022-11-08T20:51:29.870Z,67.10
2022-11-08T20:53:58.349Z,67.10
2022-11-08T20:56:25.531Z,67.10
2022-11-08T20:58:53.044Z,67.10
2022-11-08T21:01:22.035Z,68.00
2022-11-08T21:03:49.766Z,67.10
2022-11-08T21:06:20.207Z,67.20
2022-11-08T21:09:16.622Z,67.20
2022-11-08T21:11:35.563Z,67.20
2022-11-08T21:14:04.486Z,67.20
2022-11-08T21:16:42.725Z,67.20
2022-11-08T21:19:19.290Z,67.20
2022-11-08T21:21:49.027Z,67.20
2022-11-08T21:24:17.037Z,68.20
2022-11-08T21:26:43.922Z,67.40
2022-11-08T21:29:10.794Z,67.70
2022-11-08T21:31:37.653Z,67.80
2022-11-08T21:34:04.526Z,68.00
2022-11-08T21:36:31.499Z,68.00
2022-11-08T21:38:58.373Z,67.90
2022-11-08T21:41:25.295Z,68.00
2022-11-08T21:43:52.254Z,68.00
2022-11-08T21:46:22.444Z,68.10
2022-11-08T21:48:57.984Z,68.10
2022-11-08T21:51:26.304Z,68.20
2022-11-08T21:53:55.704Z,68.10
2022-11-08T21:56:30.561Z,68.10
2022-11-08T21:58:57.968Z,68.20
2022-11-08T22:01:29.917Z,68.30
2022-11-08T22:03:57.943Z,68.30
2022-11-08T22:06:24.865Z,68.30
2022-11-08T22:08:52.068Z,68.30
2022-11-08T22:11:19.026Z,68.40
2022-11-08T22:13:45.949Z,68.70
2022-11-08T22:16:12.838Z,68.70
2022-11-08T22:21:39.803Z,69.60
2022-11-08T22:24:12.717Z,68.60
2022-11-08T22:26:40.808Z,68.60
2022-11-08T22:29:07.688Z,68.60
2022-11-08T22:31:34.958Z,68.60
2022-11-08T22:34:02.287Z,68.60
2022-11-08T22:36:29.201Z,68.70
2022-11-08T22:38:56.467Z,68.80
2022-11-08T22:41:23.778Z,68.70
2022-11-08T22:43:50.984Z,68.90
2022-11-08T22:46:18.267Z,68.90
2022-11-08T22:48:45.794Z,68.90
2022-11-08T22:51:12.895Z,69.00
2022-11-08T22:53:39.930Z,69.00
2022-11-08T22:56:11.276Z,69.00
2022-11-08T22:58:39.388Z,69.00
2022-11-08T23:01:11.868Z,69.00
2022-11-08T23:03:39.101Z,69.10
2022-11-08T23:06:06.481Z,69.10
2022-11-08T23:08:33.566Z,69.10
2022-11-08T23:11:19.890Z,69.00
2022-11-08T23:14:05.264Z,68.90
2022-11-08T23:16:35.947Z,68.90
2022-11-08T23:19:24.738Z,68.90
2022-11-08T23:22:11.511Z,68.70
2022-11-08T23:24:38.845Z,68.60
2022-11-08T23:27:32.173Z,68.50
2022-11-08T23:30:17.886Z,68.30
2022-11-08T23:32:50.134Z,68.10
2022-11-08T23:35:19.119Z,67.80
2022-11-08T23:37:46.043Z,67.70
2022-11-08T23:40:33.401Z,67.60
2022-11-08T23:43:21.960Z,67.40
2022-11-08T23:45:49.280Z,67.20
2022-11-08T23:48:16.286Z,67.10
2022-11-08T23:50:50.474Z,67.10
2022-11-08T23:53:18.352Z,67.10
2022-11-08T23:55:45.515Z,67.00
2022-11-08T23:58:14.315Z,67.00
